If you wish to contribute or participate in the discussions about articles you are invited to join SKYbrary as a registered user

 Actions

Enugu

From SKYbrary Wiki

DNEN /
Airport
ICAO: DNEN
Summary
Name Enugu
Region Africa
Territory Nigeria NG.gif
Location Enugu
Serving
Coordinates 6° 28' 31.64" N, 7° 33' 42.89" E
Runways
Designator Length Width Surface ROPS
8/26 2402 m7,880.577 ft <br /> 45 m147.638 ft <br /> ASP /


METAR
Observation DNEN 131000Z 11003KT 9999 BKN012 29/25 Q1015 NOSIG
Station Enugu
Date/Time 13 June 2021 10:00:00
Wind direction 110°
Wind speed 03 kts
Lowest cloud amount broken clouds
Temperature 29°C
Dew point 25°C
Humidity 79%
QNH 1015 hPa
Weather condition n/a


Enugu International Airport

ICAO: DNEN IATA: ENU

Description

Akanu Ibiam International Airport, also known as Enugu Airport, is an airport serving Enugu, a city in the Enugu State of Nigeria.

Climatology

Tropical Savanna climate (Köppen climate classification Aw)

Maps

Terrain

Loading map...

Airport Layout

Loading map...

Accidents & Serious Incidents at or in vicinity of DNEN

None on SKYbrary